sensor_id;sensor_type;location;lat;lon;timestamp;P1;durP1;ratioP1;P2;durP2;ratioP2
72547;SDS011;60570;50.848;6.776;2023-04-24T00:00:15;1059.57;;;975.80;;
72547;SDS011;60570;50.848;6.776;2023-04-24T00:01:19;1060.72;;;977.10;;
72547;SDS011;60570;50.848;6.776;2023-04-24T00:02:21;1063.18;;;979.10;;
72547;SDS011;60570;50.848;6.776;2023-04-24T00:03:22;1059.57;;;975.83;;
72547;SDS011;60570;50.848;6.776;2023-04-24T00:04:24;1058.20;;;974.60;;
72547;SDS011;60570;50.848;6.776;2023-04-24T00:05:26;1058.70;;;974.85;;
72547;SDS011;60570;50.848;6.776;2023-04-24T00:06:27;1057.38;;;973.78;;
72547;SDS011;60570;50.848;6.776;2023-04-24T00:07:33;1057.65;;;973.88;;
72547;SDS011;60570;50.848;6.776;2023-04-24T00:08:36;1059.78;;;977.17;;
72547;SDS011;60570;50.848;6.776;2023-04-24T00:09:37;1057.88;;;974.45;;
72547;SDS011;60570;50.848;6.776;2023-04-24T00:10:39;1061.43;;;978.63;;
72547;SDS011;60570;50.848;6.776;2023-04-24T00:11:39;1059.37;;;976.00;;
72547;SDS011;60570;50.848;6.776;2023-04-24T00:12:42;1059.97;;;976.08;;
72547;SDS011;60570;50.848;6.776;2023-04-24T00:13:43;1058.23;;;974.70;;
72547;SDS011;60570;50.848;6.776;2023-04-24T00:14:45;1056.47;;;973.00;;
72547;SDS011;60570;50.848;6.776;2023-04-24T00:15:46;1058.93;;;975.05;;
72547;SDS011;60570;50.848;6.776;2023-04-24T00:17:48;1055.67;;;973.63;;
72547;SDS011;60570;50.848;6.776;2023-04-24T00:18:50;1056.07;;;973.10;;
72547;SDS011;60570;50.848;6.776;2023-04-24T00:19:52;1058.05;;;975.00;;
72547;SDS011;60570;50.848;6.776;2023-04-24T00:20:58;1059.95;;;976.53;;
72547;SDS011;60570;50.848;6.776;2023-04-24T00:22:00;1059.90;;;976.60;;
72547;SDS011;60570;50.848;6.776;2023-04-24T00:23:01;1058.00;;;974.80;;
72547;SDS011;60570;50.848;6.776;2023-04-24T00:24:04;1061.00;;;977.30;;
72547;SDS011;60570;50.848;6.776;2023-04-24T00:25:05;1058.55;;;975.20;;
72547;SDS011;60570;50.848;6.776;2023-04-24T00:26:08;1065.45;;;981.83;;
72547;SDS011;60570;50.848;6.776;2023-04-24T00:27:08;1054.93;;;971.93;;
72547;SDS011;60570;50.848;6.776;2023-04-24T00:29:11;1053.17;;;971.40;;
72547;SDS011;60570;50.848;6.776;2023-04-24T00:30:13;1056.03;;;973.60;;
72547;SDS011;60570;50.848;6.776;2023-04-24T00:31:14;1055.47;;;972.63;;
72547;SDS011;60570;50.848;6.776;2023-04-24T00:32:15;1061.20;;;977.85;;
72547;SDS011;60570;50.848;6.776;2023-04-24T00:33:17;1057.80;;;974.72;;
72547;SDS011;60570;50.848;6.776;2023-04-24T00:34:19;1059.03;;;975.72;;
72547;SDS011;60570;50.848;6.776;2023-04-24T00:35:20;1060.53;;;977.83;;
72547;SDS011;60570;50.848;6.776;2023-04-24T00:37:22;1054.30;;;973.20;;
72547;SDS011;60570;50.848;6.776;2023-04-24T00:39:26;1052.33;;;971.30;;
72547;SDS011;60570;50.848;6.776;2023-04-24T00:40:28;1056.85;;;974.92;;
72547;SDS011;60570;50.848;6.776;2023-04-24T00:41:29;1054.57;;;972.40;;
72547;SDS011;60570;50.848;6.776;2023-04-24T00:42:31;1057.90;;;975.22;;
72547;SDS011;60570;50.848;6.776;2023-04-24T00:43:33;1059.60;;;977.25;;
72547;SDS011;60570;50.848;6.776;2023-04-24T00:44:34;1058.28;;;975.28;;
72547;SDS011;60570;50.848;6.776;2023-04-24T00:45:35;1061.15;;;977.88;;
72547;SDS011;60570;50.848;6.776;2023-04-24T00:46:37;1061.55;;;978.30;;
72547;SDS011;60570;50.848;6.776;2023-04-24T00:47:38;1054.80;;;972.20;;
72547;SDS011;60570;50.848;6.776;2023-04-24T00:48:40;1063.78;;;980.10;;
72547;SDS011;60570;50.848;6.776;2023-04-24T00:49:41;1057.90;;;974.83;;
72547;SDS011;60570;50.848;6.776;2023-04-24T00:50:43;1056.95;;;974.03;;
72547;SDS011;60570;50.848;6.776;2023-04-24T00:51:44;1062.05;;;978.47;;
72547;SDS011;60570;50.848;6.776;2023-04-24T00:52:47;1057.82;;;974.75;;
72547;SDS011;60570;50.848;6.776;2023-04-24T00:53:48;1056.18;;;972.88;;
72547;SDS011;60570;50.848;6.776;2023-04-24T00:54:52;1060.57;;;977.08;;
72547;SDS011;60570;50.848;6.776;2023-04-24T00:55:53;1058.60;;;975.20;;
72547;SDS011;60570;50.848;6.776;2023-04-24T00:56:55;1058.43;;;975.08;;
72547;SDS011;60570;50.848;6.776;2023-04-24T00:57:57;1058.25;;;974.88;;
72547;SDS011;60570;50.848;6.776;2023-04-24T00:58:59;1062.25;;;978.90;;
72547;SDS011;60570;50.848;6.776;2023-04-24T01:00:00;1054.60;;;971.70;;
72547;SDS011;60570;50.848;6.776;2023-04-24T01:01:06;1058.53;;;976.28;;
72547;SDS011;60570;50.848;6.776;2023-04-24T01:02:07;1055.50;;;972.57;;
72547;SDS011;60570;50.848;6.776;2023-04-24T01:03:11;1058.38;;;974.92;;
72547;SDS011;60570;50.848;6.776;2023-04-24T01:04:13;1056.28;;;972.97;;
72547;SDS011;60570;50.848;6.776;2023-04-24T01:05:15;1060.20;;;976.88;;
72547;SDS011;60570;50.848;6.776;2023-04-24T01:06:17;1061.95;;;978.30;;
72547;SDS011;60570;50.848;6.776;2023-04-24T01:07:20;1056.90;;;973.70;;
72547;SDS011;60570;50.848;6.776;2023-04-24T01:08:21;1059.47;;;976.10;;
72547;SDS011;60570;50.848;6.776;2023-04-24T01:09:25;1055.25;;;972.25;;
72547;SDS011;60570;50.848;6.776;2023-04-24T01:10:28;1058.65;;;975.35;;
72547;SDS011;60570;50.848;6.776;2023-04-24T01:11:32;1057.05;;;973.97;;
72547;SDS011;60570;50.848;6.776;2023-04-24T01:12:33;1058.57;;;975.53;;
72547;SDS011;60570;50.848;6.776;2023-04-24T01:13:35;1058.43;;;975.05;;
72547;SDS011;60570;50.848;6.776;2023-04-24T01:14:36;1056.63;;;973.73;;
72547;SDS011;60570;50.848;6.776;2023-04-24T01:15:38;1053.82;;;970.88;;
72547;SDS011;60570;50.848;6.776;2023-04-24T01:16:39;1055.53;;;972.50;;
72547;SDS011;60570;50.848;6.776;2023-04-24T01:17:41;1060.38;;;976.70;;
72547;SDS011;60570;50.848;6.776;2023-04-24T01:18:42;1054.00;;;970.93;;
72547;SDS011;60570;50.848;6.776;2023-04-24T01:19:44;1060.97;;;977.42;;
72547;SDS011;60570;50.848;6.776;2023-04-24T01:20:45;1058.00;;;974.77;;
72547;SDS011;60570;50.848;6.776;2023-04-24T01:21:48;1056.28;;;972.97;;
72547;SDS011;60570;50.848;6.776;2023-04-24T01:22:55;1058.72;;;975.50;;
72547;SDS011;60570;50.848;6.776;2023-04-24T01:23:57;1061.07;;;977.70;;
72547;SDS011;60570;50.848;6.776;2023-04-24T01:24:58;1056.50;;;973.57;;
72547;SDS011;60570;50.848;6.776;2023-04-24T01:26:00;1056.65;;;973.35;;
72547;SDS011;60570;50.848;6.776;2023-04-24T01:27:01;1056.80;;;974.63;;
72547;SDS011;60570;50.848;6.776;2023-04-24T01:28:03;1057.80;;;974.60;;
72547;SDS011;60570;50.848;6.776;2023-04-24T01:29:04;1060.07;;;976.55;;
72547;SDS011;60570;50.848;6.776;2023-04-24T01:30:06;1058.45;;;975.15;;
72547;SDS011;60570;50.848;6.776;2023-04-24T01:31:08;1062.70;;;979.60;;
72547;SDS011;60570;50.848;6.776;2023-04-24T01:32:10;1058.63;;;975.22;;
72547;SDS011;60570;50.848;6.776;2023-04-24T01:33:11;1059.10;;;975.85;;
72547;SDS011;60570;50.848;6.776;2023-04-24T01:34:13;1056.13;;;972.97;;
72547;SDS011;60570;50.848;6.776;2023-04-24T01:35:14;1054.80;;;972.10;;
72547;SDS011;60570;50.848;6.776;2023-04-24T01:36:16;1061.70;;;979.08;;
72547;SDS011;60570;50.848;6.776;2023-04-24T01:37:18;1055.05;;;972.17;;
72547;SDS011;60570;50.848;6.776;2023-04-24T01:38:21;1056.10;;;973.22;;
72547;SDS011;60570;50.848;6.776;2023-04-24T01:39:22;1058.93;;;975.67;;
72547;SDS011;60570;50.848;6.776;2023-04-24T01:40:25;1056.15;;;973.17;;
72547;SDS011;60570;50.848;6.776;2023-04-24T01:41:26;1054.90;;;972.40;;
72547;SDS011;60570;50.848;6.776;2023-04-24T01:42:29;1055.78;;;972.95;;
72547;SDS011;60570;50.848;6.776;2023-04-24T01:43:30;1054.10;;;971.40;;
72547;SDS011;60570;50.848;6.776;2023-04-24T01:44:33;1057.60;;;974.75;;
72547;SDS011;60570;50.848;6.776;2023-04-24T01:45:34;1054.73;;;972.03;;
72547;SDS011;60570;50.848;6.776;2023-04-24T01:46:36;1060.30;;;977.08;;
72547;SDS011;60570;50.848;6.776;2023-04-24T01:47:36;1054.57;;;971.80;;
72547;SDS011;60570;50.848;6.776;2023-04-24T01:48:39;1060.75;;;977.67;;
72547;SDS011;60570;50.848;6.776;2023-04-24T01:49:41;1059.03;;;975.78;;
72547;SDS011;60570;50.848;6.776;2023-04-24T01:50:43;1057.50;;;974.45;;
72547;SDS011;60570;50.848;6.776;2023-04-24T01:51:44;1054.97;;;972.07;;
72547;SDS011;60570;50.848;6.776;2023-04-24T01:52:46;1056.45;;;973.45;;
72547;SDS011;60570;50.848;6.776;2023-04-24T01:53:48;1054.30;;;971.77;;
72547;SDS011;60570;50.848;6.776;2023-04-24T01:54:49;1058.93;;;975.75;;
72547;SDS011;60570;50.848;6.776;2023-04-24T01:55:50;1054.53;;;972.10;;
72547;SDS011;60570;50.848;6.776;2023-04-24T01:56:52;1057.18;;;974.58;;
72547;SDS011;60570;50.848;6.776;2023-04-24T01:57:54;1059.10;;;976.23;;
72547;SDS011;60570;50.848;6.776;2023-04-24T01:58:57;1063.47;;;980.35;;
72547;SDS011;60570;50.848;6.776;2023-04-24T01:59:58;1056.27;;;973.93;;
72547;SDS011;60570;50.848;6.776;2023-04-24T02:01:00;1059.18;;;976.33;;
72547;SDS011;60570;50.848;6.776;2023-04-24T02:02:01;1059.30;;;977.30;;
72547;SDS011;60570;50.848;6.776;2023-04-24T02:03:03;1061.35;;;979.08;;
72547;SDS011;60570;50.848;6.776;2023-04-24T02:04:04;1058.83;;;975.77;;
72547;SDS011;60570;50.848;6.776;2023-04-24T02:05:07;1055.88;;;973.13;;
72547;SDS011;60570;50.848;6.776;2023-04-24T02:07:10;1051.95;;;970.95;;
72547;SDS011;60570;50.848;6.776;2023-04-24T02:08:11;1054.10;;;972.67;;
72547;SDS011;60570;50.848;6.776;2023-04-24T02:09:14;1059.63;;;977.60;;
72547;SDS011;60570;50.848;6.776;2023-04-24T02:10:15;1057.35;;;975.15;;
72547;SDS011;60570;50.848;6.776;2023-04-24T02:12:17;1047.20;;;967.00;;
72547;SDS011;60570;50.848;6.776;2023-04-24T02:13:23;1053.38;;;972.05;;
72547;SDS011;60570;50.848;6.776;2023-04-24T02:14:25;1052.78;;;971.35;;
72547;SDS011;60570;50.848;6.776;2023-04-24T02:15:26;1055.57;;;973.93;;
72547;SDS011;60570;50.848;6.776;2023-04-24T02:16:28;1052.00;;;970.05;;
72547;SDS011;60570;50.848;6.776;2023-04-24T02:17:32;1054.53;;;972.50;;
72547;SDS011;60570;50.848;6.776;2023-04-24T02:18:34;1055.63;;;973.35;;
72547;SDS011;60570;50.848;6.776;2023-04-24T02:19:34;1056.57;;;975.20;;
72547;SDS011;60570;50.848;6.776;2023-04-24T02:20:36;1057.40;;;974.83;;
72547;SDS011;60570;50.848;6.776;2023-04-24T02:21:37;1057.22;;;974.72;;
72547;SDS011;60570;50.848;6.776;2023-04-24T02:23:40;1048.80;;;968.43;;
72547;SDS011;60570;50.848;6.776;2023-04-24T02:25:43;1049.53;;;969.67;;
72547;SDS011;60570;50.848;6.776;2023-04-24T02:26:45;1056.70;;;975.65;;
72547;SDS011;60570;50.848;6.776;2023-04-24T02:27:46;1053.13;;;971.90;;
72547;SDS011;60570;50.848;6.776;2023-04-24T02:28:48;1056.97;;;975.10;;
72547;SDS011;60570;50.848;6.776;2023-04-24T02:29:49;1056.43;;;974.35;;
72547;SDS011;60570;50.848;6.776;2023-04-24T02:31:51;1050.57;;;970.30;;
72547;SDS011;60570;50.848;6.776;2023-04-24T02:32:54;1052.80;;;971.70;;
72547;SDS011;60570;50.848;6.776;2023-04-24T02:33:55;1050.93;;;969.33;;
72547;SDS011;60570;50.848;6.776;2023-04-24T02:34:57;1055.13;;;973.30;;
72547;SDS011;60570;50.848;6.776;2023-04-24T02:35:58;1052.37;;;970.67;;
72547;SDS011;60570;50.848;6.776;2023-04-24T02:38:00;1048.87;;;968.73;;
72547;SDS011;60570;50.848;6.776;2023-04-24T02:39:03;1052.82;;;971.70;;
72547;SDS011;60570;50.848;6.776;2023-04-24T02:40:06;1055.70;;;973.93;;
72547;SDS011;60570;50.848;6.776;2023-04-24T02:41:09;1057.30;;;975.15;;
72547;SDS011;60570;50.848;6.776;2023-04-24T02:42:10;1055.50;;;973.50;;
72547;SDS011;60570;50.848;6.776;2023-04-24T02:43:12;1054.07;;;972.28;;
72547;SDS011;60570;50.848;6.776;2023-04-24T02:44:13;1055.27;;;973.13;;
72547;SDS011;60570;50.848;6.776;2023-04-24T02:45:15;1058.38;;;975.90;;
72547;SDS011;60570;50.848;6.776;2023-04-24T02:46:16;1056.90;;;974.50;;
72547;SDS011;60570;50.848;6.776;2023-04-24T02:47:18;1056.72;;;974.28;;
72547;SDS011;60570;50.848;6.776;2023-04-24T02:48:18;1054.30;;;972.23;;
72547;SDS011;60570;50.848;6.776;2023-04-24T02:49:21;1055.75;;;973.28;;
72547;SDS011;60570;50.848;6.776;2023-04-24T02:50:21;1053.50;;;971.37;;
72547;SDS011;60570;50.848;6.776;2023-04-24T02:51:23;1055.57;;;973.58;;
72547;SDS011;60570;50.848;6.776;2023-04-24T02:52:24;1057.77;;;975.30;;
72547;SDS011;60570;50.848;6.776;2023-04-24T02:53:26;1060.15;;;978.10;;
72547;SDS011;60570;50.848;6.776;2023-04-24T02:54:27;1053.43;;;971.33;;
72547;SDS011;60570;50.848;6.776;2023-04-24T02:55:30;1052.22;;;970.53;;
72547;SDS011;60570;50.848;6.776;2023-04-24T02:56:31;1052.97;;;970.90;;
72547;SDS011;60570;50.848;6.776;2023-04-24T02:57:32;1053.75;;;971.70;;
72547;SDS011;60570;50.848;6.776;2023-04-24T02:58:33;1053.23;;;971.23;;
72547;SDS011;60570;50.848;6.776;2023-04-24T02:59:35;1055.68;;;973.33;;
72547;SDS011;60570;50.848;6.776;2023-04-24T03:00:36;1053.90;;;971.70;;
72547;SDS011;60570;50.848;6.776;2023-04-24T03:01:38;1057.75;;;975.95;;
72547;SDS011;60570;50.848;6.776;2023-04-24T03:02:38;1057.03;;;974.80;;
72547;SDS011;60570;50.848;6.776;2023-04-24T03:03:40;1057.25;;;974.65;;
72547;SDS011;60570;50.848;6.776;2023-04-24T03:04:41;1052.40;;;970.27;;
72547;SDS011;60570;50.848;6.776;2023-04-24T03:05:45;1056.00;;;973.97;;
72547;SDS011;60570;50.848;6.776;2023-04-24T03:06:47;1052.38;;;970.38;;
72547;SDS011;60570;50.848;6.776;2023-04-24T03:07:56;1052.07;;;970.20;;
72547;SDS011;60570;50.848;6.776;2023-04-24T03:08:57;1052.53;;;970.67;;
72547;SDS011;60570;50.848;6.776;2023-04-24T03:11:01;1051.40;;;970.87;;
72547;SDS011;60570;50.848;6.776;2023-04-24T03:12:02;1052.22;;;970.90;;
72547;SDS011;60570;50.848;6.776;2023-04-24T03:13:03;1052.80;;;971.97;;
72547;SDS011;60570;50.848;6.776;2023-04-24T03:14:05;1050.63;;;969.15;;
72547;SDS011;60570;50.848;6.776;2023-04-24T03:15:06;1051.60;;;969.83;;
72547;SDS011;60570;50.848;6.776;2023-04-24T03:16:09;1051.65;;;970.00;;
72547;SDS011;60570;50.848;6.776;2023-04-24T03:17:10;1055.87;;;973.77;;
72547;SDS011;60570;50.848;6.776;2023-04-24T03:18:11;1055.00;;;973.00;;
72547;SDS011;60570;50.848;6.776;2023-04-24T03:19:12;1056.10;;;974.13;;
72547;SDS011;60570;50.848;6.776;2023-04-24T03:21:15;1046.30;;;966.33;;
72547;SDS011;60570;50.848;6.776;2023-04-24T03:22:17;1052.32;;;971.20;;
72547;SDS011;60570;50.848;6.776;2023-04-24T03:23:17;1050.13;;;969.20;;
72547;SDS011;60570;50.848;6.776;2023-04-24T03:25:20;1046.82;;;967.35;;
72547;SDS011;60570;50.848;6.776;2023-04-24T03:26:24;1049.97;;;969.33;;
72547;SDS011;60570;50.848;6.776;2023-04-24T03:27:25;1052.93;;;972.75;;
72547;SDS011;60570;50.848;6.776;2023-04-24T03:29:28;1051.60;;;972.13;;
72547;SDS011;60570;50.848;6.776;2023-04-24T03:30:29;1045.87;;;965.93;;
72547;SDS011;60570;50.848;6.776;2023-04-24T03:31:31;1049.43;;;968.67;;
72547;SDS011;60570;50.848;6.776;2023-04-24T03:32:31;1050.33;;;969.43;;
72547;SDS011;60570;50.848;6.776;2023-04-24T03:33:33;1055.38;;;974.15;;
72547;SDS011;60570;50.848;6.776;2023-04-24T03:34:34;1052.03;;;971.00;;
72547;SDS011;60570;50.848;6.776;2023-04-24T03:35:36;1052.88;;;971.03;;
72547;SDS011;60570;50.848;6.776;2023-04-24T03:36:37;1051.63;;;970.47;;
72547;SDS011;60570;50.848;6.776;2023-04-24T03:38:39;1049.57;;;969.77;;
72547;SDS011;60570;50.848;6.776;2023-04-24T03:39:41;1051.47;;;970.50;;
72547;SDS011;60570;50.848;6.776;2023-04-24T03:40:42;1050.23;;;969.40;;
72547;SDS011;60570;50.848;6.776;2023-04-24T03:42:47;1049.28;;;969.88;;
72547;SDS011;60570;50.848;6.776;2023-04-24T03:43:49;1049.25;;;968.78;;
72547;SDS011;60570;50.848;6.776;2023-04-24T03:44:49;1050.83;;;970.27;;
72547;SDS011;60570;50.848;6.776;2023-04-24T03:45:52;1056.35;;;974.78;;
72547;SDS011;60570;50.848;6.776;2023-04-24T03:46:53;1055.18;;;973.67;;
72547;SDS011;60570;50.848;6.776;2023-04-24T03:47:55;1052.90;;;971.45;;
72547;SDS011;60570;50.848;6.776;2023-04-24T03:48:56;1051.70;;;970.43;;
72547;SDS011;60570;50.848;6.776;2023-04-24T03:50:58;1043.50;;;964.20;;
72547;SDS011;60570;50.848;6.776;2023-04-24T03:52:00;1049.78;;;969.22;;
72547;SDS011;60570;50.848;6.776;2023-04-24T03:53:01;1050.27;;;969.50;;
72547;SDS011;60570;50.848;6.776;2023-04-24T03:54:04;1054.32;;;972.92;;
72547;SDS011;60570;50.848;6.776;2023-04-24T03:55:06;1052.88;;;971.75;;
72547;SDS011;60570;50.848;6.776;2023-04-24T03:56:07;1051.38;;;970.00;;
72547;SDS011;60570;50.848;6.776;2023-04-24T03:57:10;1049.95;;;968.75;;
72547;SDS011;60570;50.848;6.776;2023-04-24T03:58:11;1052.93;;;971.42;;
72547;SDS011;60570;50.848;6.776;2023-04-24T03:59:13;1051.43;;;970.05;;
72547;SDS011;60570;50.848;6.776;2023-04-24T04:00:14;1051.40;;;970.23;;
72547;SDS011;60570;50.848;6.776;2023-04-24T04:01:18;1054.70;;;972.92;;
72547;SDS011;60570;50.848;6.776;2023-04-24T04:02:20;1054.47;;;972.63;;
72547;SDS011;60570;50.848;6.776;2023-04-24T04:03:22;1055.32;;;974.00;;
72547;SDS011;60570;50.848;6.776;2023-04-24T04:04:23;1051.50;;;969.97;;
72547;SDS011;60570;50.848;6.776;2023-04-24T04:05:25;1053.18;;;971.42;;
72547;SDS011;60570;50.848;6.776;2023-04-24T04:06:26;1051.17;;;969.43;;
72547;SDS011;60570;50.848;6.776;2023-04-24T04:07:28;1053.07;;;971.40;;
72547;SDS011;60570;50.848;6.776;2023-04-24T04:08:30;1053.07;;;972.08;;
72547;SDS011;60570;50.848;6.776;2023-04-24T04:09:31;1056.65;;;974.85;;
72547;SDS011;60570;50.848;6.776;2023-04-24T04:10:33;1055.07;;;974.05;;
72547;SDS011;60570;50.848;6.776;2023-04-24T04:11:35;1053.07;;;971.50;;
72547;SDS011;60570;50.848;6.776;2023-04-24T04:12:37;1051.33;;;969.73;;
72547;SDS011;60570;50.848;6.776;2023-04-24T04:13:39;1055.18;;;973.25;;
72547;SDS011;60570;50.848;6.776;2023-04-24T04:14:39;1052.07;;;971.33;;
72547;SDS011;60570;50.848;6.776;2023-04-24T04:15:41;1051.75;;;970.40;;
72547;SDS011;60570;50.848;6.776;2023-04-24T04:16:43;1052.20;;;970.77;;
72547;SDS011;60570;50.848;6.776;2023-04-24T04:17:45;1055.93;;;973.92;;
72547;SDS011;60570;50.848;6.776;2023-04-24T04:18:46;1051.30;;;969.97;;
72547;SDS011;60570;50.848;6.776;2023-04-24T04:19:48;1051.40;;;970.00;;
72547;SDS011;60570;50.848;6.776;2023-04-24T04:20:48;1049.43;;;968.37;;
72547;SDS011;60570;50.848;6.776;2023-04-24T04:21:50;1053.65;;;972.08;;
72547;SDS011;60570;50.848;6.776;2023-04-24T04:22:53;1052.55;;;971.22;;
72547;SDS011;60570;50.848;6.776;2023-04-24T04:23:55;1053.32;;;971.63;;
72547;SDS011;60570;50.848;6.776;2023-04-24T04:24:56;1052.00;;;970.35;;
72547;SDS011;60570;50.848;6.776;2023-04-24T04:25:58;1053.25;;;971.65;;
72547;SDS011;60570;50.848;6.776;2023-04-24T04:27:00;1052.72;;;971.22;;
72547;SDS011;60570;50.848;6.776;2023-04-24T04:28:03;1052.65;;;972.20;;
72547;SDS011;60570;50.848;6.776;2023-04-24T04:29:07;1048.30;;;966.95;;
72547;SDS011;60570;50.848;6.776;2023-04-24T04:30:10;1052.47;;;971.05;;
72547;SDS011;60570;50.848;6.776;2023-04-24T04:31:14;1056.72;;;974.45;;
72547;SDS011;60570;50.848;6.776;2023-04-24T04:32:18;1055.40;;;973.60;;
72547;SDS011;60570;50.848;6.776;2023-04-24T04:33:19;1050.40;;;969.10;;
72547;SDS011;60570;50.848;6.776;2023-04-24T04:35:23;1049.93;;;969.88;;
72547;SDS011;60570;50.848;6.776;2023-04-24T04:36:25;1047.82;;;967.38;;
72547;SDS011;60570;50.848;6.776;2023-04-24T04:37:26;1050.40;;;969.63;;
72547;SDS011;60570;50.848;6.776;2023-04-24T04:38:29;1051.80;;;970.72;;
72547;SDS011;60570;50.848;6.776;2023-04-24T04:39:30;1051.88;;;970.95;;
72547;SDS011;60570;50.848;6.776;2023-04-24T04:41:34;1043.28;;;964.38;;
72547;SDS011;60570;50.848;6.776;2023-04-24T04:43:41;1047.05;;;968.08;;
72547;SDS011;60570;50.848;6.776;2023-04-24T04:44:43;1049.38;;;969.75;;
72547;SDS011;60570;50.848;6.776;2023-04-24T04:45:45;1049.60;;;970.35;;
72547;SDS011;60570;50.848;6.776;2023-04-24T04:46:48;1054.00;;;973.20;;
72547;SDS011;60570;50.848;6.776;2023-04-24T04:47:50;1051.05;;;970.28;;
72547;SDS011;60570;50.848;6.776;2023-04-24T04:48:52;1048.65;;;968.00;;
72547;SDS011;60570;50.848;6.776;2023-04-24T04:49:55;1050.60;;;969.88;;
72547;SDS011;60570;50.848;6.776;2023-04-24T04:51:57;1045.10;;;966.17;;
72547;SDS011;60570;50.848;6.776;2023-04-24T04:53:01;1050.60;;;970.25;;
72547;SDS011;60570;50.848;6.776;2023-04-24T04:54:05;1050.70;;;970.15;;
72547;SDS011;60570;50.848;6.776;2023-04-24T04:55:09;1048.72;;;968.17;;
72547;SDS011;60570;50.848;6.776;2023-04-24T04:56:10;1050.97;;;969.95;;
72547;SDS011;60570;50.848;6.776;2023-04-24T04:57:12;1051.13;;;970.25;;
72547;SDS011;60570;50.848;6.776;2023-04-24T04:58:13;1053.68;;;972.30;;
72547;SDS011;60570;50.848;6.776;2023-04-24T04:59:17;1050.63;;;969.47;;
72547;SDS011;60570;50.848;6.776;2023-04-24T05:00:17;1051.53;;;970.38;;
72547;SDS011;60570;50.848;6.776;2023-04-24T05:01:21;1054.90;;;973.33;;
72547;SDS011;60570;50.848;6.776;2023-04-24T05:02:25;1050.82;;;969.53;;
72547;SDS011;60570;50.848;6.776;2023-04-24T05:03:29;1051.57;;;970.47;;
72547;SDS011;60570;50.848;6.776;2023-04-24T05:04:32;1051.57;;;970.78;;
72547;SDS011;60570;50.848;6.776;2023-04-24T05:05:36;1049.40;;;968.33;;
72547;SDS011;60570;50.848;6.776;2023-04-24T05:06:42;1052.43;;;971.38;;
72547;SDS011;60570;50.848;6.776;2023-04-24T05:07:46;1051.97;;;970.42;;
72547;SDS011;60570;50.848;6.776;2023-04-24T05:08:47;1055.97;;;974.42;;
72547;SDS011;60570;50.848;6.776;2023-04-24T05:09:49;1053.07;;;971.70;;
72547;SDS011;60570;50.848;6.776;2023-04-24T05:10:52;1053.82;;;972.28;;
72547;SDS011;60570;50.848;6.776;2023-04-24T05:11:55;1055.20;;;973.60;;
72547;SDS011;60570;50.848;6.776;2023-04-24T05:14:01;1049.22;;;969.53;;
72547;SDS011;60570;50.848;6.776;2023-04-24T05:15:05;1053.22;;;972.63;;
72547;SDS011;60570;50.848;6.776;2023-04-24T05:16:09;1052.43;;;971.65;;
72547;SDS011;60570;50.848;6.776;2023-04-24T05:17:12;1054.43;;;973.47;;
72547;SDS011;60570;50.848;6.776;2023-04-24T05:18:16;1052.88;;;971.83;;
72547;SDS011;60570;50.848;6.776;2023-04-24T05:19:19;1054.15;;;972.88;;
72547;SDS011;60570;50.848;6.776;2023-04-24T05:20:23;1053.63;;;972.55;;
72547;SDS011;60570;50.848;6.776;2023-04-24T05:21:26;1052.07;;;971.10;;
72547;SDS011;60570;50.848;6.776;2023-04-24T05:22:30;1054.70;;;973.50;;
72547;SDS011;60570;50.848;6.776;2023-04-24T05:23:33;1050.43;;;969.63;;
72547;SDS011;60570;50.848;6.776;2023-04-24T05:24:36;1052.75;;;971.47;;
72547;SDS011;60570;50.848;6.776;2023-04-24T05:25:39;1054.05;;;973.95;;
72547;SDS011;60570;50.848;6.776;2023-04-24T05:26:43;1050.72;;;969.55;;
72547;SDS011;60570;50.848;6.776;2023-04-24T05:27:45;1050.47;;;969.42;;
72547;SDS011;60570;50.848;6.776;2023-04-24T05:28:49;1050.25;;;969.33;;
72547;SDS011;60570;50.848;6.776;2023-04-24T05:29:51;1052.20;;;970.95;;
72547;SDS011;60570;50.848;6.776;2023-04-24T05:30:56;1050.70;;;969.58;;
72547;SDS011;60570;50.848;6.776;2023-04-24T05:32:01;1050.20;;;969.15;;
72547;SDS011;60570;50.848;6.776;2023-04-24T05:33:05;1050.80;;;969.92;;
72547;SDS011;60570;50.848;6.776;2023-04-24T05:34:08;1053.05;;;971.75;;
72547;SDS011;60570;50.848;6.776;2023-04-24T05:35:11;1055.88;;;974.42;;
72547;SDS011;60570;50.848;6.776;2023-04-24T05:36:15;1053.00;;;971.70;;
72547;SDS011;60570;50.848;6.776;2023-04-24T05:37:17;1047.88;;;967.20;;
72547;SDS011;60570;50.848;6.776;2023-04-24T05:38:20;1051.80;;;970.70;;
72547;SDS011;60570;50.848;6.776;2023-04-24T05:39:23;1049.57;;;968.75;;
72547;SDS011;60570;50.848;6.776;2023-04-24T05:40:27;1052.07;;;971.17;;
72547;SDS011;60570;50.848;6.776;2023-04-24T05:41:31;1052.10;;;971.08;;
72547;SDS011;60570;50.848;6.776;2023-04-24T05:42:33;1052.55;;;971.45;;
72547;SDS011;60570;50.848;6.776;2023-04-24T05:43:36;1051.05;;;970.22;;
72547;SDS011;60570;50.848;6.776;2023-04-24T05:44:38;1052.68;;;971.58;;
72547;SDS011;60570;50.848;6.776;2023-04-24T05:45:42;1051.75;;;970.65;;
72547;SDS011;60570;50.848;6.776;2023-04-24T05:46:46;1054.47;;;974.17;;
72547;SDS011;60570;50.848;6.776;2023-04-24T05:47:49;1053.03;;;971.78;;
72547;SDS011;60570;50.848;6.776;2023-04-24T05:48:54;1051.57;;;970.38;;
72547;SDS011;60570;50.848;6.776;2023-04-24T05:49:56;1050.68;;;969.55;;
72547;SDS011;60570;50.848;6.776;2023-04-24T05:51:00;1051.90;;;970.70;;
72547;SDS011;60570;50.848;6.776;2023-04-24T05:52:02;1057.63;;;976.63;;
72547;SDS011;60570;50.848;6.776;2023-04-24T05:53:08;1055.32;;;973.90;;
72547;SDS011;60570;50.848;6.776;2023-04-24T05:54:12;1051.97;;;970.85;;
72547;SDS011;60570;50.848;6.776;2023-04-24T05:55:19;1050.87;;;970.07;;
72547;SDS011;60570;50.848;6.776;2023-04-24T05:56:27;1052.30;;;971.28;;
72547;SDS011;60570;50.848;6.776;2023-04-24T05:57:32;1053.03;;;971.83;;
72547;SDS011;60570;50.848;6.776;2023-04-24T05:58:36;1056.18;;;974.88;;
72547;SDS011;60570;50.848;6.776;2023-04-24T05:59:40;1054.70;;;973.53;;
72547;SDS011;60570;50.848;6.776;2023-04-24T06:00:43;1053.93;;;972.90;;
72547;SDS011;60570;50.848;6.776;2023-04-24T06:01:50;1056.72;;;976.00;;
72547;SDS011;60570;50.848;6.776;2023-04-24T06:02:53;1052.45;;;971.63;;
72547;SDS011;60570;50.848;6.776;2023-04-24T06:04:02;1050.75;;;969.97;;
72547;SDS011;60570;50.848;6.776;2023-04-24T06:05:06;1053.60;;;972.58;;
72547;SDS011;60570;50.848;6.776;2023-04-24T06:06:11;1057.85;;;976.60;;
72547;SDS011;60570;50.848;6.776;2023-04-24T06:07:15;1056.32;;;974.97;;
72547;SDS011;60570;50.848;6.776;2023-04-24T06:08:19;1052.30;;;971.25;;
72547;SDS011;60570;50.848;6.776;2023-04-24T06:09:22;1051.50;;;970.65;;
72547;SDS011;60570;50.848;6.776;2023-04-24T06:10:27;1056.65;;;975.15;;